Time;durP1;ratioP1;P1;durP2;ratioP2;P2;SDS_P1;SDS_P2;PMS_P1;PMS_P2;Temp;Humidity;BMP_temperature;BMP_pressure;BME280_temperature;BME280_humidity;BME280_pressure;Samples;Min_cycle;Max_cycle;Signal;HPM_P1;HPM_P2
2024/01/30 00:00:11;;;;;;;12.88;10.32;;;15.20;71.80;;;;;;4208563;28;20138;-62
2024/01/30 00:02:52;;;;;;;12.90;9.95;;;15.20;71.90;;;;;;4194521;27;20048;-62
2024/01/30 00:05:33;;;;;;;15.48;10.35;;;15.20;72.00;;;;;;4191963;28;20051;-62
2024/01/30 00:08:14;;;;;;;13.85;10.52;;;15.20;72.00;;;;;;4194379;27;20056;-62
2024/01/30 00:10:55;;;;;;;18.17;11.00;;;15.20;72.10;;;;;;4199186;27;20055;-61
2024/01/30 00:13:36;;;;;;;13.57;10.00;;;15.10;72.20;;;;;;4209752;27;20403;-49
2024/01/30 00:16:24;;;;;;;12.07;10.02;;;15.10;72.40;;;;;;4209118;27;20100;-50
2024/01/30 00:19:05;;;;;;;12.27;10.75;;;15.10;72.50;;;;;;4208752;27;20061;-53
2024/01/30 00:21:46;;;;;;;12.50;10.07;;;15.10;72.60;;;;;;4206438;27;20407;-56
2024/01/30 00:24:28;;;;;;;13.52;11.30;;;15.10;72.60;;;;;;4208675;27;20601;-61
2024/01/30 00:27:09;;;;;;;11.10;9.95;;;15.10;72.90;;;;;;4209317;27;20071;-61
2024/01/30 00:29:50;;;;;;;13.70;10.60;;;15.00;72.80;;;;;;4196163;28;20051;-62
2024/01/30 00:32:33;;;;;;;11.60;10.18;;;15.10;73.00;;;;;;4192474;28;20047;-62
2024/01/30 00:35:14;;;;;;;14.25;10.52;;;15.00;72.90;;;;;;4202686;27;20055;-62
2024/01/30 00:37:55;;;;;;;14.40;10.98;;;15.00;73.00;;;;;;4209568;27;20399;-62
2024/01/30 00:40:36;;;;;;;12.65;10.55;;;15.00;73.10;;;;;;4192824;28;20109;-62
2024/01/30 00:43:17;;;;;;;13.05;9.88;;;15.00;73.10;;;;;;4192294;28;20716;-62
2024/01/30 00:45:59;;;;;;;12.15;10.13;;;15.00;74.10;;;;;;4191066;28;20182;-61
2024/01/30 00:48:42;;;;;;;13.23;10.48;;;15.00;73.30;;;;;;4198265;27;20051;-60
2024/01/30 00:51:23;;;;;;;13.07;10.30;;;14.90;73.40;;;;;;4196852;28;20126;-61
2024/01/30 00:54:04;;;;;;;15.80;10.95;;;14.90;74.20;;;;;;4191040;28;20051;-61
2024/01/30 00:56:44;;;;;;;12.48;9.77;;;14.90;73.40;;;;;;4192337;28;20048;-61
2024/01/30 00:59:25;;;;;;;13.38;10.18;;;14.90;73.70;;;;;;4192328;28;20055;-61
2024/01/30 01:02:06;;;;;;;12.70;10.32;;;14.90;74.20;;;;;;4200157;28;20083;-49
2024/01/30 01:04:49;;;;;;;13.82;10.68;;;15.00;74.30;;;;;;4191700;28;20499;-61
2024/01/30 01:07:30;;;;;;;11.55;9.48;;;15.00;74.50;;;;;;4191869;28;20514;-61
2024/01/30 01:10:13;;;;;;;12.13;10.05;;;15.00;75.40;;;;;;4193305;27;20067;-61
2024/01/30 01:12:54;;;;;;;13.88;10.82;;;15.10;74.60;;;;;;4180937;28;20404;-49
2024/01/30 01:15:35;;;;;;;12.45;10.65;;;15.10;74.60;;;;;;4191534;28;20411;-49
2024/01/30 01:18:16;;;;;;;13.57;10.52;;;15.10;74.40;;;;;;4191545;28;20063;-49
2024/01/30 01:20:59;;;;;;;13.95;10.15;;;15.10;74.30;;;;;;4191274;28;20056;-49
2024/01/30 01:23:39;;;;;;;12.63;10.77;;;15.10;74.20;;;;;;4190103;28;20056;-49
2024/01/30 01:26:21;;;;;;;15.07;11.57;;;15.00;74.00;;;;;;4191466;28;20047;-51
2024/01/30 01:29:04;;;;;;;;;;;15.00;73.90;;;;;;4193862;28;20133;-52
2024/01/30 01:31:45;;;;;;;11.10;10.00;;;15.00;73.80;;;;;;4192012;28;19931;-48
2024/01/30 01:34:26;;;;;;;12.75;10.25;;;14.90;74.60;;;;;;4190984;28;20093;-48
2024/01/30 01:37:11;;;;;;;11.80;10.32;;;15.00;75.20;;;;;;4191845;28;20051;-49
2024/01/30 01:39:52;;;;;;;13.70;10.25;;;15.10;75.50;;;;;;4195044;27;20055;-50
2024/01/30 01:42:33;;;;;;;14.25;9.80;;;15.20;75.20;;;;;;4207193;27;20120;-50
2024/01/30 01:45:15;;;;;;;12.45;10.05;;;15.30;75.00;;;;;;4208272;27;20109;-50
2024/01/30 01:47:56;;;;;;;;;;;15.40;74.60;;;;;;4209128;27;20066;-50
2024/01/30 01:50:37;;;;;;;13.65;9.73;;;15.50;74.20;;;;;;4200994;27;19928;-50
2024/01/30 01:53:20;;;;;;;11.45;10.25;;;15.50;74.20;;;;;;4194201;27;20059;-49
2024/01/30 01:56:01;;;;;;;14.18;9.15;;;15.60;73.90;;;;;;4208397;28;20417;-50
2024/01/30 01:58:42;;;;;;;11.93;10.43;;;15.60;73.60;;;;;;4208700;28;20058;-49
2024/01/30 02:01:26;;;;;;;11.98;9.57;;;15.60;73.60;;;;;;4206762;28;20050;-50
2024/01/30 02:04:07;;;;;;;10.88;9.18;;;15.50;73.40;;;;;;4206940;28;20047;-50
2024/01/30 02:06:48;;;;;;;14.38;10.32;;;15.50;73.60;;;;;;4207484;28;20054;-49
2024/01/30 02:09:31;;;;;;;11.82;10.18;;;15.50;73.60;;;;;;4205723;28;20054;-49
2024/01/30 02:12:12;;;;;;;12.40;9.82;;;15.50;73.90;;;;;;4191565;28;20127;-50
2024/01/30 02:14:54;;;;;;;13.50;9.55;;;15.50;74.00;;;;;;4191144;28;20048;-49
2024/01/30 02:17:35;;;;;;;11.85;9.35;;;15.60;73.90;;;;;;4205435;28;20051;-48
2024/01/30 02:20:16;;;;;;;11.60;9.07;;;15.70;73.70;;;;;;4210072;28;20059;-51
2024/01/30 02:23:01;;;;;;;12.32;9.85;;;15.70;73.40;;;;;;4207309;28;20047;-51
2024/01/30 02:25:45;;;;;;;15.88;9.43;;;15.70;73.20;;;;;;4207953;28;20052;-62
2024/01/30 02:28:25;;;;;;;11.27;9.35;;;15.70;73.30;;;;;;4208723;28;20054;-61
2024/01/30 02:31:07;;;;;;;10.65;9.25;;;15.80;73.40;;;;;;4208481;28;20055;-62
2024/01/30 02:33:47;;;;;;;10.85;9.35;;;15.80;73.20;;;;;;4217440;28;20574;-62
2024/01/30 02:36:29;;;;;;;11.57;9.38;;;15.90;73.00;;;;;;4223613;28;20054;-63
2024/01/30 02:39:11;;;;;;;12.13;9.00;;;16.00;72.50;;;;;;4222949;28;20054;-63
2024/01/30 02:41:52;;;;;;;10.60;9.50;;;16.00;72.30;;;;;;4208166;28;20403;-62
2024/01/30 02:44:33;;;;;;;11.07;8.85;;;16.00;72.30;;;;;;4208254;28;20067;-49
2024/01/30 02:47:14;;;;;;;11.10;9.93;;;16.00;72.30;;;;;;4209884;28;20059;-50
2024/01/30 02:49:55;;;;;;;12.05;9.93;;;16.00;72.50;;;;;;4215471;28;20047;-52
2024/01/30 02:52:36;;;;;;;;;;;16.00;72.50;;;;;;4210910;28;20047;-51
2024/01/30 02:55:19;;;;;;;9.88;8.40;;;16.00;72.50;;;;;;4210693;28;19931;-51
2024/01/30 02:57:59;;;;;;;11.95;8.60;;;16.00;72.70;;;;;;4210817;28;20173;-53
2024/01/30 03:00:41;;;;;;;11.25;9.00;;;16.00;72.60;;;;;;4210594;28;20055;-53
2024/01/30 03:03:22;;;;;;;12.85;8.85;;;15.90;72.60;;;;;;4193357;28;20063;-51
2024/01/30 03:06:02;;;;;;;11.38;8.82;;;15.90;73.60;;;;;;4193176;28;20122;-61
2024/01/30 03:08:43;;;;;;;10.02;8.95;;;15.90;72.90;;;;;;4194335;28;20052;-61
2024/01/30 03:11:26;;;;;;;10.80;8.85;;;15.80;72.80;;;;;;4210461;28;20050;-61
2024/01/30 03:14:07;;;;;;;11.68;8.73;;;15.80;73.10;;;;;;4227322;27;20050;-60
2024/01/30 03:16:49;;;;;;;8.98;8.07;;;15.80;73.10;;;;;;4227677;27;20088;-60
2024/01/30 03:19:30;;;;;;;13.32;8.07;;;15.90;73.00;;;;;;4220185;28;20079;-61
2024/01/30 03:22:11;;;;;;;12.95;8.88;;;15.90;72.80;;;;;;4210359;28;20125;-61
2024/01/30 03:24:52;;;;;;;10.65;8.90;;;16.00;72.80;;;;;;4210526;28;20137;-60
2024/01/30 03:27:34;;;;;;;12.65;8.25;;;16.00;72.80;;;;;;4210232;28;20043;-61
2024/01/30 03:30:15;;;;;;;10.18;8.52;;;16.00;72.80;;;;;;4210273;28;20108;-61
2024/01/30 03:32:56;;;;;;;12.00;8.98;;;16.10;72.70;;;;;;4210370;28;20137;-61
2024/01/30 03:35:37;;;;;;;10.93;8.90;;;16.10;72.40;;;;;;4209802;28;20164;-62
2024/01/30 03:38:18;;;;;;;9.75;8.63;;;16.10;72.30;;;;;;4210340;28;20055;-61
2024/01/30 03:41:00;;;;;;;9.15;8.20;;;16.10;72.30;;;;;;4210324;28;20109;-62
2024/01/30 03:43:42;;;;;;;11.73;8.98;;;16.10;72.40;;;;;;4210315;28;20208;-63
2024/01/30 03:46:23;;;;;;;12.68;8.68;;;16.10;72.40;;;;;;4210096;28;20510;-62
2024/01/30 03:49:04;;;;;;;10.57;8.35;;;16.10;72.40;;;;;;4209598;28;20047;-62
2024/01/30 03:51:47;;;;;;;10.15;8.10;;;16.10;72.40;;;;;;4221647;27;20050;-62
2024/01/30 03:54:28;;;;;;;11.68;8.75;;;16.10;72.40;;;;;;4226009;27;20521;-51
2024/01/30 03:57:09;;;;;;;11.93;8.32;;;16.10;72.50;;;;;;4226486;27;20815;-54
2024/01/30 03:59:53;;;;;;;11.93;8.93;;;16.10;72.50;;;;;;4226628;27;20050;-53
2024/01/30 04:02:34;;;;;;;13.18;8.85;;;16.10;72.30;;;;;;4210618;27;20055;-61
2024/01/30 04:05:15;;;;;;;9.48;8.45;;;16.20;72.30;;;;;;4241822;27;20054;-61
2024/01/30 04:07:57;;;;;;;9.40;8.27;;;16.20;72.40;;;;;;4243938;27;20188;-50
2024/01/30 04:10:38;;;;;;;13.27;8.52;;;16.20;72.10;;;;;;4226618;27;20501;-49
2024/01/30 04:13:19;;;;;;;8.80;7.88;;;16.20;72.10;;;;;;4225430;27;20043;-49
2024/01/30 04:16:02;;;;;;;12.70;8.15;;;16.20;72.00;;;;;;4211059;28;20169;-52
2024/01/30 04:18:43;;;;;;;9.07;8.18;;;16.30;72.10;;;;;;4209584;28;20046;-49
2024/01/30 04:21:24;;;;;;;9.63;8.50;;;16.30;71.70;;;;;;4230296;27;20112;-49
2024/01/30 04:24:06;;;;;;;10.93;8.55;;;16.30;71.50;;;;;;4243902;27;20042;-51
2024/01/30 04:26:47;;;;;;;12.18;8.70;;;16.30;71.60;;;;;;4243726;27;20038;-53
2024/01/30 04:29:28;;;;;;;9.65;8.60;;;16.30;71.70;;;;;;4237120;27;20070;-52
2024/01/30 04:32:11;;;;;;;10.55;7.85;;;16.30;71.60;;;;;;4212623;28;20054;-49
2024/01/30 04:34:52;;;;;;;9.10;8.20;;;16.30;71.40;;;;;;4209359;28;20058;-49
2024/01/30 04:37:33;;;;;;;10.75;8.52;;;16.30;71.40;;;;;;4209154;28;20568;-49
2024/01/30 04:40:14;;;;;;;8.85;7.35;;;16.30;71.60;;;;;;4220364;27;20062;-49
2024/01/30 04:42:55;;;;;;;8.65;7.72;;;16.30;71.50;;;;;;4226075;27;20054;-61
2024/01/30 04:45:36;;;;;;;9.48;8.40;;;16.30;71.50;;;;;;4226176;27;20054;-61
2024/01/30 04:48:19;;;;;;;8.35;7.53;;;16.30;71.40;;;;;;4213425;27;20605;-61
2024/01/30 04:51:02;;;;;;;10.35;7.60;;;16.30;71.50;;;;;;4208835;27;20048;-61
2024/01/30 04:53:43;;;;;;;9.13;8.23;;;16.30;71.80;;;;;;4209041;28;20055;-61
2024/01/30 04:56:24;;;;;;;8.77;7.57;;;16.40;71.70;;;;;;4208310;28;20496;-61
2024/01/30 04:59:05;;;;;;;10.20;8.00;;;16.40;71.50;;;;;;4207962;28;20051;-61
2024/01/30 05:01:46;;;;;;;8.70;7.80;;;16.40;71.30;;;;;;4208552;27;20063;-60
2024/01/30 05:04:29;;;;;;;13.63;8.48;;;16.40;71.10;;;;;;4208394;27;20096;-61
2024/01/30 05:07:10;;;;;;;10.02;8.18;;;16.40;71.40;;;;;;4207120;27;20517;-61
2024/01/30 05:09:50;;;;;;;10.15;8.02;;;16.40;71.80;;;;;;4215461;27;20120;-60
2024/01/30 05:12:32;;;;;;;9.38;6.97;;;16.30;71.60;;;;;;4225453;27;20220;-63
2024/01/30 05:15:13;;;;;;;9.07;7.72;;;16.40;71.40;;;;;;4209443;28;20055;-62
2024/01/30 05:17:55;;;;;;;8.30;7.45;;;16.40;71.30;;;;;;4218960;28;20050;-49
2024/01/30 05:20:37;;;;;;;9.65;7.82;;;16.40;71.30;;;;;;4224912;28;20533;-50
2024/01/30 05:23:18;;;;;;;13.60;7.75;;;16.40;71.40;;;;;;4225289;28;20062;-50
2024/01/30 05:26:00;;;;;;;10.32;8.27;;;16.30;71.60;;;;;;4223704;28;20045;-52
2024/01/30 05:28:41;;;;;;;9.13;7.90;;;16.40;71.30;;;;;;4225056;28;20046;-49
2024/01/30 05:31:22;;;;;;;10.65;8.02;;;16.50;71.30;;;;;;4221835;27;20093;-53
2024/01/30 05:34:04;;;;;;;12.35;8.45;;;16.50;71.10;;;;;;4224864;28;20505;-53
2024/01/30 05:36:46;;;;;;;8.63;7.72;;;16.50;71.10;;;;;;4225294;28;20055;-50
2024/01/30 05:39:27;;;;;;;8.55;7.22;;;16.60;70.90;;;;;;4226022;27;20109;-51
2024/01/30 05:42:08;;;;;;;8.15;7.35;;;16.60;71.60;;;;;;4208748;28;20055;-50
2024/01/30 05:44:49;;;;;;;9.20;7.80;;;16.60;70.70;;;;;;4207120;28;20807;-50
2024/01/30 05:47:30;;;;;;;9.05;7.72;;;16.60;70.70;;;;;;4208587;28;20189;-50
2024/01/30 05:50:11;;;;;;;8.32;7.55;;;16.60;70.70;;;;;;4211603;28;20060;-50
2024/01/30 05:52:53;;;;;;;8.55;7.75;;;16.50;70.70;;;;;;4223486;28;20060;-51
2024/01/30 05:55:34;;;;;;;11.98;8.70;;;16.40;70.80;;;;;;4208613;28;20128;-51
2024/01/30 05:58:15;;;;;;;8.90;7.47;;;16.40;70.90;;;;;;4209033;28;20440;-52
2024/01/30 06:00:56;;;;;;;9.10;8.13;;;16.40;71.90;;;;;;4209160;28;20106;-50
2024/01/30 06:03:38;;;;;;;9.55;7.38;;;16.30;71.40;;;;;;4207440;28;20043;-53
2024/01/30 06:06:19;;;;;;;8.27;7.50;;;16.30;71.80;;;;;;4208548;28;20182;-61
2024/01/30 06:09:02;;;;;;;10.60;7.60;;;16.40;71.60;;;;;;4208143;28;20051;-61
2024/01/30 06:11:43;;;;;;;9.45;8.27;;;16.50;71.20;;;;;;4206861;28;20055;-60
2024/01/30 06:14:24;;;;;;;10.07;7.68;;;16.60;71.10;;;;;;4209465;28;20051;-59
2024/01/30 06:17:05;;;;;;;9.38;7.85;;;16.50;70.90;;;;;;4208435;28;20059;-61
2024/01/30 06:19:46;;;;;;;9.63;7.72;;;16.50;70.90;;;;;;4208448;28;20078;-60
2024/01/30 06:22:27;;;;;;;10.30;8.48;;;16.50;71.10;;;;;;4210927;28;20039;-61
2024/01/30 06:25:12;;;;;;;9.77;7.38;;;16.60;71.10;;;;;;4210232;28;20101;-61
2024/01/30 06:27:53;;;;;;;8.73;6.53;;;16.60;70.90;;;;;;4214438;27;20062;-61
2024/01/30 06:30:34;;;;;;;8.88;7.97;;;16.60;70.80;;;;;;4227255;28;20058;-61
2024/01/30 06:33:15;;;;;;;9.48;7.50;;;16.50;71.00;;;;;;4227325;28;20167;-62
2024/01/30 06:35:56;;;;;;;8.27;7.47;;;16.60;71.30;;;;;;4226790;28;20131;-61
2024/01/30 06:38:37;;;;;;;9.65;7.78;;;16.60;71.00;;;;;;4225098;27;20069;-61
2024/01/30 06:41:19;;;;;;;10.32;7.90;;;16.70;70.70;;;;;;4221715;27;20063;-62
2024/01/30 06:44:00;;;;;;;7.68;6.88;;;16.70;70.60;;;;;;4227680;27;20457;-60
2024/01/30 06:46:41;;;;;;;11.48;7.50;;;16.60;70.50;;;;;;4228269;27;20049;-61
2024/01/30 06:49:22;;;;;;;8.10;7.10;;;16.60;70.70;;;;;;4227319;28;20050;-62
2024/01/30 06:52:03;;;;;;;;;;;16.60;70.70;;;;;;4211221;28;20055;-62
2024/01/30 06:54:44;;;;;;;7.93;7.20;;;16.70;71.60;;;;;;4227066;27;19927;-62
2024/01/30 06:57:27;;;;;;;9.43;7.53;;;16.70;71.60;;;;;;4227683;27;20296;-53
2024/01/30 07:00:09;;;;;;;12.73;7.40;;;16.70;71.20;;;;;;4226587;27;20074;-52
2024/01/30 07:02:50;;;;;;;10.35;7.57;;;16.70;71.20;;;;;;4227419;27;20063;-53
2024/01/30 07:05:32;;;;;;;9.13;7.47;;;16.70;70.90;;;;;;4221633;27;20051;-60
2024/01/30 07:08:13;;;;;;;10.02;7.25;;;16.80;70.70;;;;;;4210192;28;20059;-61
2024/01/30 07:10:55;;;;;;;9.18;6.95;;;16.80;70.50;;;;;;4223789;27;20058;-61
2024/01/30 07:13:40;;;;;;;8.07;7.00;;;16.80;70.40;;;;;;4227140;28;20046;-62
2024/01/30 07:16:22;;;;;;;10.13;7.15;;;16.70;70.30;;;;;;4214799;27;20061;-61
2024/01/30 07:19:03;;;;;;;9.70;7.75;;;16.70;70.70;;;;;;4216611;28;20059;-62
2024/01/30 07:21:44;;;;;;;8.82;6.97;;;16.70;70.90;;;;;;4209952;28;20070;-61
2024/01/30 07:24:25;;;;;;;12.23;7.70;;;16.70;70.60;;;;;;4209523;28;20047;-61
2024/01/30 07:27:06;;;;;;;9.68;7.25;;;16.80;70.50;;;;;;4210546;28;20055;-61
2024/01/30 07:29:48;;;;;;;9.45;7.53;;;16.70;70.40;;;;;;4214092;28;20046;-61
2024/01/30 07:32:29;;;;;;;9.65;6.70;;;16.60;70.60;;;;;;4226787;27;20120;-62
2024/01/30 07:35:11;;;;;;;8.68;7.35;;;16.60;70.80;;;;;;4225924;28;20063;-61
2024/01/30 07:37:52;;;;;;;8.55;7.75;;;16.70;70.80;;;;;;4225633;28;20115;-61
2024/01/30 07:40:33;;;;;;;10.43;7.73;;;16.70;70.70;;;;;;4210348;28;20047;-60
2024/01/30 07:43:14;;;;;;;9.45;7.45;;;16.70;70.40;;;;;;4210115;28;20067;-59
2024/01/30 07:45:56;;;;;;;8.05;6.93;;;16.70;70.60;;;;;;4210647;28;20054;-59
2024/01/30 07:48:38;;;;;;;8.30;6.80;;;16.80;70.50;;;;;;4210180;28;20078;-57
2024/01/30 07:51:19;;;;;;;10.02;8.30;;;16.80;69.70;;;;;;4208515;28;20128;-55
2024/01/30 07:54:00;;;;;;;8.45;7.53;;;16.80;68.50;;;;;;4209728;28;20475;-57
2024/01/30 07:56:42;;;;;;;9.65;7.40;;;16.80;68.10;;;;;;4210031;28;20054;-56
2024/01/30 07:59:24;;;;;;;12.45;7.45;;;16.80;68.10;;;;;;4209124;27;20525;-57
2024/01/30 08:02:07;;;;;;;9.90;7.43;;;16.60;67.90;;;;;;4217039;28;20046;-48
2024/01/30 08:04:49;;;;;;;9.52;7.50;;;16.60;67.90;;;;;;4224502;27;20513;-48
2024/01/30 08:07:30;;;;;;;11.40;8.70;;;16.50;67.60;;;;;;4207996;28;20051;-50
2024/01/30 08:10:13;;;;;;;9.80;8.07;;;16.50;67.60;;;;;;4222093;27;20071;-48
2024/01/30 08:12:54;;;;;;;9.23;6.80;;;16.50;67.50;;;;;;4209436;28;20055;-49
2024/01/30 08:15:35;;;;;;;10.00;7.73;;;16.50;67.60;;;;;;4224974;27;20056;-48
2024/01/30 08:18:17;;;;;;;8.00;6.82;;;16.50;67.60;;;;;;4226250;27;20054;-48
2024/01/30 08:20:58;;;;;;;10.35;8.15;;;16.50;67.30;;;;;;4209126;28;20043;-50
2024/01/30 08:23:39;;;;;;;10.88;7.53;;;16.40;67.20;;;;;;4218696;28;20063;-49
2024/01/30 08:26:21;;;;;;;10.13;8.00;;;16.40;67.10;;;;;;4210131;27;20054;-48
2024/01/30 08:29:02;;;;;;;8.95;7.30;;;16.40;67.20;;;;;;4226140;27;20066;-47
2024/01/30 08:31:44;;;;;;;9.05;7.47;;;16.30;67.30;;;;;;4230672;27;20050;-47
2024/01/30 08:34:27;;;;;;;8.50;7.63;;;16.20;67.50;;;;;;4209058;27;20051;-47
2024/01/30 08:37:07;;;;;;;11.10;6.93;;;16.20;67.90;;;;;;4192140;28;20528;-47
2024/01/30 08:39:48;;;;;;;7.60;6.68;;;16.20;68.70;;;;;;4192305;28;20137;-50
2024/01/30 08:42:29;;;;;;;11.18;6.95;;;16.30;69.40;;;;;;4192424;27;20089;-50
2024/01/30 08:45:11;;;;;;;10.25;7.55;;;16.30;69.90;;;;;;4191558;28;20050;-51
2024/01/30 08:47:51;;;;;;;10.98;6.43;;;16.30;70.00;;;;;;4192056;28;20059;-51
2024/01/30 08:50:34;;;;;;;9.10;7.43;;;16.40;70.60;;;;;;4205471;27;20552;-51
2024/01/30 08:53:15;;;;;;;10.77;7.60;;;16.40;70.70;;;;;;4191738;28;20055;-51
2024/01/30 08:55:58;;;;;;;8.45;6.97;;;16.50;70.30;;;;;;4192152;28;20075;-51
2024/01/30 08:58:40;;;;;;;8.02;7.13;;;16.70;70.00;;;;;;4192433;28;20510;-54
2024/01/30 09:01:21;;;;;;;11.73;8.05;;;16.70;70.00;;;;;;4207420;27;20113;-51
2024/01/30 09:04:02;;;;;;;8.57;6.82;;;16.80;69.40;;;;;;4193585;28;20070;-52
2024/01/30 09:06:45;;;;;;;9.57;7.13;;;16.80;68.70;;;;;;4196818;27;20121;-51
2024/01/30 09:09:25;;;;;;;9.38;7.20;;;16.80;68.10;;;;;;4208658;27;20047;-51
2024/01/30 09:12:09;;;;;;;10.10;7.63;;;16.80;67.90;;;;;;4205141;28;20055;-52
2024/01/30 09:14:50;;;;;;;8.63;6.97;;;16.70;67.60;;;;;;4204569;27;20081;-51
2024/01/30 09:17:31;;;;;;;7.50;6.63;;;16.60;67.50;;;;;;4206891;28;20054;-51
2024/01/30 09:20:12;;;;;;;12.13;7.43;;;16.60;67.50;;;;;;4208287;28;20597;-51
2024/01/30 09:22:55;;;;;;;;;;;16.50;67.40;;;;;;4210828;27;20490;-56
2024/01/30 09:25:35;;;;;;;;;;;16.50;67.60;;;;;;4209354;28;19926;-51
2024/01/30 09:28:17;;;;;;;10.43;7.30;;;16.40;67.80;;;;;;4208424;28;19931;-54
2024/01/30 09:30:57;;;;;;;;;;;16.30;67.90;;;;;;4208486;28;20047;-50
2024/01/30 09:33:39;;;;;;;9.07;6.57;;;16.30;68.10;;;;;;4207233;28;20015;-52
2024/01/30 09:36:19;;;;;;;9.40;6.55;;;16.20;68.10;;;;;;4208713;28;20075;-50
2024/01/30 09:39:03;;;;;;;9.55;6.10;;;16.30;68.10;;;;;;4208280;28;20406;-51
2024/01/30 09:41:49;;;;;;;11.82;6.88;;;16.30;68.00;;;;;;4208132;28;20050;-50
2024/01/30 09:44:31;;;;;;;7.57;6.85;;;16.20;67.90;;;;;;4208732;28;20055;-54
2024/01/30 09:47:12;;;;;;;8.82;6.55;;;16.20;67.90;;;;;;4208720;28;20521;-54
2024/01/30 09:49:53;;;;;;;7.03;5.22;;;16.20;67.90;;;;;;4220091;27;20063;-53
2024/01/30 09:52:34;;;;;;;7.97;5.65;;;16.20;67.90;;;;;;4217344;27;20055;-54
2024/01/30 09:55:16;;;;;;;9.55;6.00;;;16.20;67.80;;;;;;4208530;28;20066;-62
2024/01/30 09:57:57;;;;;;;10.13;7.20;;;16.20;67.80;;;;;;4211879;28;20054;-62
2024/01/30 10:00:38;;;;;;;8.85;6.50;;;16.20;67.90;;;;;;4217829;28;20046;-61
2024/01/30 10:03:20;;;;;;;11.02;6.10;;;16.20;68.10;;;;;;4226985;28;20391;-61
2024/01/30 10:06:02;;;;;;;11.20;6.70;;;16.20;68.20;;;;;;4228397;27;20062;-61
2024/01/30 10:08:43;;;;;;;10.50;7.35;;;16.20;68.50;;;;;;4223064;28;20505;-61
2024/01/30 10:24:29;;;;;;;7.35;5.90;;;16.30;68.60;;;;;;4169778;24;20153;-53
2024/01/30 10:26:52;;;;;;;11.52;6.50;;;16.30;68.60;;;;;;3948309;29;20454;-40
2024/01/30 10:29:34;;;;;;;4.93;4.22;;;16.30;68.60;;;;;;3967994;29;20062;-40
2024/01/30 10:32:11;;;;;;;8.60;6.65;;;16.40;68.50;;;;;;3955498;29;20243;-47
2024/01/30 10:38:21;;;;;;;9.18;6.90;;;16.40;68.40;;;;;;2376461;27;20456;-43
2024/01/30 10:40:58;;;;;;;11.98;6.28;;;16.40;68.30;;;;;;2470615;28;20222;-46
2024/01/30 10:53:15;;;;;;;13.10;7.47;;;16.40;68.40;;;;;;4492996;24;20047;-63
2024/01/30 10:56:00;;;;;;;13.63;7.88;;;16.40;68.60;;;;;;3960592;29;20070;-43
2024/01/30 10:58:43;;;;;;;13.85;7.82;;;16.30;68.80;;;;;;3954713;29;20062;-48
2024/01/30 11:01:32;;;;;;;12.60;6.38;;;16.30;68.90;;;;;;3953044;29;20062;-46
2024/01/30 11:04:13;;;;;;;13.75;7.03;;;16.30;68.80;;;;;;3959083;29;20066;-48
2024/01/30 11:06:56;;;;;;;12.10;6.93;;;16.30;68.80;;;;;;3977088;29;20061;-46
2024/01/30 11:09:45;;;;;;;8.43;6.90;;;16.40;68.80;;;;;;3982650;29;20509;-47
2024/01/30 11:12:29;;;;;;;10.13;6.57;;;16.30;68.80;;;;;;3960391;29;20062;-48
2024/01/30 11:15:14;;;;;;;10.07;6.80;;;16.30;68.90;;;;;;3965813;29;20070;-50
2024/01/30 11:18:05;;;;;;;7.15;4.65;;;16.20;69.10;;;;;;3964388;29;20066;-48
2024/01/30 11:20:49;;;;;;;11.27;6.50;;;16.20;69.20;;;;;;3967046;29;20090;-47
2024/01/30 11:23:37;;;;;;;8.23;6.32;;;16.20;69.50;;;;;;3965491;29;20054;-48
2024/01/30 11:26:20;;;;;;;11.10;6.85;;;16.10;69.70;;;;;;3966923;29;20545;-50
2024/01/30 11:29:09;;;;;;;9.73;6.78;;;16.00;69.90;;;;;;3958548;29;20103;-51
2024/01/30 11:31:53;;;;;;;5.03;4.57;;;16.00;70.20;;;;;;3967077;29;20083;-48
2024/01/30 11:34:42;;;;;;;10.98;7.30;;;15.90;70.40;;;;;;3965846;29;20567;-48
2024/01/30 11:37:27;;;;;;;9.15;7.03;;;15.90;70.70;;;;;;3960755;29;20081;-50
2024/01/30 11:40:10;;;;;;;6.43;4.85;;;15.80;70.90;;;;;;3966622;29;20062;-52
2024/01/30 11:42:54;;;;;;;7.45;6.55;;;15.70;71.00;;;;;;3964393;29;20391;-47
2024/01/30 11:45:37;;;;;;;13.07;6.82;;;15.70;71.40;;;;;;3966550;29;20103;-50
2024/01/30 11:48:18;;;;;;;9.80;6.88;;;15.60;71.60;;;;;;3971314;29;20114;-50
2024/01/30 11:50:59;;;;;;;9.43;6.30;;;15.60;71.80;;;;;;3962278;29;20210;-50
2024/01/30 11:53:42;;;;;;;8.55;6.95;;;15.50;71.80;;;;;;3955488;29;20070;-47
2024/01/30 11:56:25;;;;;;;15.80;7.60;;;15.50;72.10;;;;;;3970646;29;20070;-51
2024/01/30 11:59:06;;;;;;;9.95;6.57;;;15.50;72.30;;;;;;3965979;29;20110;-51
2024/01/30 12:01:52;;;;;;;;;;;15.50;72.50;;;;;;3967580;29;20069;-51
2024/01/30 12:04:35;;;;;;;13.73;4.72;;;15.40;72.60;;;;;;3967954;29;19947;-48
2024/01/30 12:07:16;;;;;;;8.45;5.20;;;15.40;73.80;;;;;;3967617;29;20524;-50
2024/01/30 12:09:57;;;;;;;15.18;5.68;;;15.30;73.10;;;;;;3960482;29;20076;-48
2024/01/30 12:12:40;;;;;;;8.98;4.72;;;15.30;74.00;;;;;;3957642;29;20061;-48
2024/01/30 12:15:23;;;;;;;7.90;3.75;;;15.30;73.30;;;;;;3961545;29;20065;-53
2024/01/30 12:18:12;;;;;;;5.32;3.60;;;15.30;73.40;;;;;;3967147;29;20461;-51
2024/01/30 12:21:00;;;;;;;5.88;3.33;;;15.20;73.50;;;;;;3966016;29;20049;-48
2024/01/30 12:23:42;;;;;;;4.38;2.25;;;15.20;73.40;;;;;;3965049;29;20208;-48
2024/01/30 12:26:23;;;;;;;;;;;15.20;73.40;;;;;;3963410;29;20085;-49
2024/01/30 12:29:05;;;;;;;3.28;1.92;;;15.10;73.30;;;;;;3963268;29;20434;-48
2024/01/30 12:31:48;;;;;;;3.13;1.85;;;15.10;73.20;;;;;;3967174;29;20468;-47
2024/01/30 12:34:31;;;;;;;3.55;2.15;;;15.10;73.20;;;;;;3965712;29;20081;-49
2024/01/30 12:37:24;;;;;;;3.65;1.40;;;15.00;73.00;;;;;;3967569;29;20061;-49
2024/01/30 12:40:10;;;;;;;5.75;2.17;;;15.00;73.00;;;;;;3965405;29;20430;-49
2024/01/30 12:42:53;;;;;;;4.93;1.83;;;15.00;73.00;;;;;;3959200;29;20506;-51
2024/01/30 12:45:36;;;;;;;3.63;1.33;;;15.00;73.10;;;;;;3964124;29;20058;-48
2024/01/30 12:48:17;;;;;;;2.78;1.33;;;15.00;73.20;;;;;;3965924;29;20111;-47
2024/01/30 12:51:00;;;;;;;2.80;1.05;;;14.90;73.10;;;;;;3963322;29;20537;-47
2024/01/30 12:53:41;;;;;;;2.90;1.00;;;14.90;73.10;;;;;;3966388;29;20065;-48
2024/01/30 12:56:22;;;;;;;3.63;1.40;;;14.90;73.10;;;;;;3959175;29;20058;-44
2024/01/30 12:59:04;;;;;;;2.17;0.73;;;14.90;73.00;;;;;;3964328;29;20058;-47
2024/01/30 13:01:45;;;;;;;2.03;1.02;;;14.90;73.00;;;;;;3966319;29;20058;-43
2024/01/30 13:04:26;;;;;;;1.42;0.70;;;14.90;72.90;;;;;;3962305;29;20407;-42
2024/01/30 13:07:08;;;;;;;;;;;14.90;72.90;;;;;;3964584;29;20117;-42
2024/01/30 13:09:49;;;;;;;0.73;0.47;;;14.90;73.00;;;;;;3965604;29;19973;-45
2024/01/30 13:12:32;;;;;;;1.02;0.70;;;14.80;73.00;;;;;;3960933;29;20057;-42
2024/01/30 13:15:16;;;;;;;1.48;0.60;;;14.80;73.00;;;;;;3964714;29;20057;-42
2024/01/30 13:18:03;;;;;;;2.20;0.40;;;14.80;73.10;;;;;;3963339;29;20479;-43
2024/01/30 13:20:45;;;;;;;0.50;0.47;;;14.80;73.00;;;;;;3965205;29;20085;-43
2024/01/30 13:23:36;;;;;;;1.10;0.75;;;14.80;73.00;;;;;;3962755;29;20062;-42
2024/01/30 13:26:21;;;;;;;0.52;0.50;;;14.70;72.90;;;;;;3965807;29;20062;-43
2024/01/30 13:29:02;;;;;;;0.55;0.38;;;14.70;72.90;;;;;;3962173;29;20094;-44
2024/01/30 13:31:46;;;;;;;1.07;0.47;;;14.70;73.10;;;;;;3965616;29;20074;-42
2024/01/30 13:34:28;;;;;;;1.70;0.80;;;14.80;73.10;;;;;;3965452;29;20479;-45
2024/01/30 13:37:10;;;;;;;0.70;0.45;;;14.80;72.90;;;;;;3963259;29;20194;-44
2024/01/30 13:39:53;;;;;;;1.95;0.50;;;14.80;72.70;;;;;;3965583;29;20057;-42
2024/01/30 13:42:34;;;;;;;0.60;0.40;;;14.80;72.60;;;;;;3963474;29;20058;-43
2024/01/30 13:45:16;;;;;;;0.38;0.30;;;14.80;72.50;;;;;;3964825;29;20176;-44
2024/01/30 13:47:59;;;;;;;0.57;0.40;;;14.90;72.50;;;;;;3953908;29;20089;-45
2024/01/30 13:50:40;;;;;;;0.40;0.40;;;14.90;72.40;;;;;;3962776;29;20697;-42
2024/01/30 13:53:24;;;;;;;1.67;0.43;;;14.90;72.50;;;;;;3961072;29;20058;-49
2024/01/30 13:56:12;;;;;;;0.50;0.40;;;15.00;72.50;;;;;;3962965;29;20053;-46
2024/01/30 13:58:57;;;;;;;0.60;0.50;;;15.00;72.00;;;;;;3962032;29;20115;-43
2024/01/30 14:01:39;;;;;;;0.40;0.38;;;15.10;71.70;;;;;;3964691;29;20741;-43
2024/01/30 14:04:23;;;;;;;1.73;0.25;;;15.10;71.40;;;;;;3963500;29;20075;-45
2024/01/30 14:07:12;;;;;;;0.80;0.50;;;15.10;71.30;;;;;;3961103;29;20054;-45
2024/01/30 14:09:53;;;;;;;1.35;0.40;;;15.10;71.40;;;;;;3952787;29;20525;-45
2024/01/30 14:12:36;;;;;;;0.40;0.40;;;15.10;71.40;;;;;;3963270;29;20411;-42
2024/01/30 14:15:18;;;;;;;0.75;0.55;;;15.00;71.50;;;;;;3964556;29;20065;-45
2024/01/30 14:18:04;;;;;;;0.73;0.55;;;15.00;71.60;;;;;;3962965;29;20695;-42
2024/01/30 14:20:45;;;;;;;0.57;0.40;;;15.10;71.70;;;;;;3964640;29;20390;-43
2024/01/30 14:23:26;;;;;;;1.80;0.50;;;15.10;71.50;;;;;;3960399;29;20058;-46